createdAt,value
2022-09-23T00:10:34.977Z,7.20
2022-09-23T00:25:41.008Z,6.37
2022-09-23T00:40:47.378Z,6.90
2022-09-23T00:55:57.926Z,6.33
2022-09-23T01:11:11.398Z,6.50
2022-09-23T01:26:37.801Z,6.70
2022-09-23T01:41:42.678Z,6.20
2022-09-23T01:56:58.721Z,6.20
2022-09-23T02:12:15.719Z,6.40
2022-09-23T02:27:41.208Z,7.17
2022-09-23T02:42:49.909Z,6.23
2022-09-23T02:57:56.359Z,6.30
2022-09-23T03:13:08.458Z,6.20
2022-09-23T03:28:55.503Z,6.30
2022-09-23T03:44:17.472Z,5.90
2022-09-23T03:59:51.123Z,6.50
2022-09-23T04:15:07.437Z,7.23
2022-09-23T04:30:45.275Z,8.80
2022-09-23T05:01:53.751Z,8.20
2022-09-23T05:18:01.415Z,9.17
2022-09-23T05:32:47.006Z,10.00
2022-09-23T05:47:51.261Z,9.00
2022-09-23T06:02:55.241Z,7.90
2022-09-23T06:17:58.591Z,6.03
2022-09-23T06:33:03.262Z,5.20
2022-09-23T06:48:10.065Z,6.07
2022-09-23T07:03:13.286Z,6.57
2022-09-23T07:18:16.739Z,6.10
2022-09-23T07:33:30.440Z,6.00
2022-09-23T07:48:40.003Z,5.30
2022-09-23T08:03:46.500Z,4.80
2022-09-23T08:18:50.807Z,4.77
2022-09-23T08:33:58.493Z,5.20
2022-09-23T08:49:02.032Z,4.67
2022-09-23T09:04:45.093Z,4.20
2022-09-23T09:20:00.171Z,4.30
2022-09-23T09:35:09.706Z,4.30
2022-09-23T09:50:22.298Z,3.80
2022-09-23T10:05:48.832Z,4.50
2022-09-23T10:20:53.118Z,3.70
2022-09-23T10:35:58.654Z,3.60
2022-09-23T10:51:05.399Z,3.93
2022-09-23T11:06:27.393Z,3.80
2022-09-23T11:21:54.064Z,3.47
2022-09-23T11:37:04.900Z,3.20
2022-09-23T11:52:20.535Z,2.80
2022-09-23T12:07:54.668Z,2.70
2022-09-23T12:23:01.278Z,2.30
2022-09-23T12:38:13.731Z,3.70
2022-09-23T12:53:34.055Z,3.17
2022-09-23T13:08:40.770Z,3.30
2022-09-23T13:24:04.483Z,3.30
2022-09-23T13:39:16.232Z,3.10
2022-09-23T13:54:39.219Z,3.37
2022-09-23T14:09:54.999Z,3.83
2022-09-23T14:24:59.151Z,3.67
2022-09-23T14:40:04.090Z,4.37
2022-09-23T14:55:16.671Z,4.17
2022-09-23T15:10:24.571Z,3.70
2022-09-23T15:25:33.175Z,3.87
2022-09-23T15:40:43.816Z,3.97
2022-09-23T15:56:02.151Z,5.07
2022-09-23T16:11:10.392Z,4.40
2022-09-23T16:26:25.797Z,3.90
2022-09-23T16:41:34.324Z,4.97
2022-09-23T16:56:50.909Z,4.97
2022-09-23T17:12:01.235Z,5.87
2022-09-23T17:27:05.765Z,5.80
2022-09-23T17:42:21.498Z,5.73
2022-09-23T18:28:38.132Z,5.97
2022-09-23T18:43:48.571Z,8.70
2022-09-23T18:58:53.629Z,8.53
2022-09-23T19:14:01.152Z,8.13
2022-09-23T19:29:07.073Z,7.67
2022-09-23T19:44:11.695Z,5.17
2022-09-23T19:59:19.394Z,4.50
2022-09-23T20:14:25.307Z,4.53
2022-09-23T20:29:34.024Z,5.50
2022-09-23T20:44:40.328Z,5.70
2022-09-23T20:59:49.747Z,5.33
2022-09-23T21:15:08.882Z,4.13
2022-09-23T21:30:19.956Z,5.70
2022-09-23T21:45:33.334Z,5.40
2022-09-23T22:00:37.896Z,4.70
2022-09-23T22:15:49.830Z,8.70
2022-09-23T22:31:13.636Z,9.50
2022-09-23T22:46:26.498Z,9.83
2022-09-23T23:01:41.399Z,10.37
2022-09-23T23:16:46.996Z,9.80
2022-09-23T23:31:50.675Z,9.07
2022-09-23T23:46:55.913Z,7.60
